Harrisburg, PA (17110)

11:30 PM EST on November 27, 2014 (GMT -0500)
Apple Tree Farms | Change Station
CLOSE
Current Station
Personal Weather Station
Location: Harrisburg, PA
Elevation: 472 ft
Nearby Weather Stations

Elev 472 ft 40.32 °N, 76.87 °W | Updated 6 minutes ago

Overcast
Overcast
33.3 °F
Feels Like 33 °F
N
2.7
Wind Variable Wind from NE

Today
High -- | Low -- °F
--% Chance of Precip.
Yesterday
High -- | Low -- °F
Precip. -- in
7:06 AM 4:43 PM
Waxing Crescent, 36% visible
Pressure 30.14 in
Visibility 10.0 miles
Clouds Few 5000 ft
Scattered Clouds 6000 ft
Mostly Cloudy 9000 ft
Windchill 33 °F
Dew Point Not available.
Humidity Not available.
Rainfall 0.17 in
Snow Depth Not available.
UV 0 out of 12
Pollen .10 out of 12
Air Quality Not available.
Flu Activity Not available.
METAR KMDT 280356Z 32006KT 10SM FEW050 SCT060 BKN090 01/M02 A3012 RMK AO2 SLP204 T00061022

More Conditions Fewer Conditions

Pressure 30.14 in
Visibility 10.0 miles
Clouds Few 5000 ft
Scattered Clouds 6000 ft
Mostly Cloudy 9000 ft
Windchill 33 °F
Dew Point Not available.
Humidity Not available.
Rainfall 0.17 in
Snow Depth Not available.
UV 0 out of 12
Pollen .10 out of 12
Air Quality Not available.
Flu Activity Not available.
METAR KMDT 280356Z 32006KT 10SM FEW050 SCT060 BKN090 01/M02 A3012 RMK AO2 SLP204 T00061022

More Conditions Fewer Conditions

10-Day Weather Forecast

Almanac

Astronomy

Nov. 27, 2014 Rise Set
Actual Time
Civil Twilight
Nautical Twilight
Astronomical Twilight
Moon
Length of Visible Light
Length of Day
Tomorrow will be .
, % of the Moon is Illuminated

Today's Extremes

State Highs State Lows

Community

WunderPhotos

Upload Photos

1,774,188 photos uploaded!

WunderBlogs® & News

Nearby

Air Quality

  Air Quality AQ Index Pollutant
Not available.

Snow Depth

Station Depth Elevation

Earthquake Activity

City Distance Mag. Time & Date
Minimum magnitude displayed is 2.5.

Coastal Water Temperatures

Place Temperature

Nearby Weather Stations